sensor_id;sensor_type;location;lat;lon;timestamp;temperature;humidity
46754;DHT22;32500;50.620;3.400;2024-03-06T00:00:48;16.10;67.10
46754;DHT22;32500;50.620;3.400;2024-03-06T00:03:13;16.10;67.20
46754;DHT22;32500;50.620;3.400;2024-03-06T00:05:39;16.00;67.10
46754;DHT22;32500;50.620;3.400;2024-03-06T00:08:05;16.00;67.20
46754;DHT22;32500;50.620;3.400;2024-03-06T00:10:31;16.00;67.30
46754;DHT22;32500;50.620;3.400;2024-03-06T00:12:57;16.00;67.20
46754;DHT22;32500;50.620;3.400;2024-03-06T00:15:22;16.00;67.20
46754;DHT22;32500;50.620;3.400;2024-03-06T00:17:48;15.90;67.20
46754;DHT22;32500;50.620;3.400;2024-03-06T00:20:14;15.90;67.30
46754;DHT22;32500;50.620;3.400;2024-03-06T00:22:40;15.90;67.20
46754;DHT22;32500;50.620;3.400;2024-03-06T00:25:06;15.90;67.30
46754;DHT22;32500;50.620;3.400;2024-03-06T00:27:33;15.90;67.50
46754;DHT22;32500;50.620;3.400;2024-03-06T00:29:59;15.80;67.50
46754;DHT22;32500;50.620;3.400;2024-03-06T00:32:25;15.80;67.60
46754;DHT22;32500;50.620;3.400;2024-03-06T00:34:50;15.90;68.40
46754;DHT22;32500;50.620;3.400;2024-03-06T00:37:16;15.80;67.70
46754;DHT22;32500;50.620;3.400;2024-03-06T00:39:43;15.80;67.60
46754;DHT22;32500;50.620;3.400;2024-03-06T00:42:08;15.80;67.70
46754;DHT22;32500;50.620;3.400;2024-03-06T00:44:35;15.80;67.70
46754;DHT22;32500;50.620;3.400;2024-03-06T00:47:01;15.80;67.90
46754;DHT22;32500;50.620;3.400;2024-03-06T00:49:26;15.70;67.70
46754;DHT22;32500;50.620;3.400;2024-03-06T00:51:52;15.80;67.90
46754;DHT22;32500;50.620;3.400;2024-03-06T00:54:18;15.70;67.70
46754;DHT22;32500;50.620;3.400;2024-03-06T00:56:43;15.70;67.80
46754;DHT22;32500;50.620;3.400;2024-03-06T00:59:09;15.70;67.80
46754;DHT22;32500;50.620;3.400;2024-03-06T01:01:34;15.70;67.80
46754;DHT22;32500;50.620;3.400;2024-03-06T01:04:00;15.70;68.00
46754;DHT22;32500;50.620;3.400;2024-03-06T01:06:26;15.70;68.10
46754;DHT22;32500;50.620;3.400;2024-03-06T01:08:52;15.60;68.10
46754;DHT22;32500;50.620;3.400;2024-03-06T01:11:17;15.60;68.00
46754;DHT22;32500;50.620;3.400;2024-03-06T01:13:43;15.60;68.00
46754;DHT22;32500;50.620;3.400;2024-03-06T01:16:08;15.60;68.10
46754;DHT22;32500;50.620;3.400;2024-03-06T01:18:37;15.60;68.10
46754;DHT22;32500;50.620;3.400;2024-03-06T01:21:03;15.60;68.10
46754;DHT22;32500;50.620;3.400;2024-03-06T01:23:29;15.60;68.00
46754;DHT22;32500;50.620;3.400;2024-03-06T01:25:54;15.60;68.10
46754;DHT22;32500;50.620;3.400;2024-03-06T01:28:20;15.60;68.20
46754;DHT22;32500;50.620;3.400;2024-03-06T01:30:46;15.60;68.20
46754;DHT22;32500;50.620;3.400;2024-03-06T01:33:11;15.50;68.10
46754;DHT22;32500;50.620;3.400;2024-03-06T01:35:37;15.50;68.10
46754;DHT22;32500;50.620;3.400;2024-03-06T01:38:03;15.50;68.10
46754;DHT22;32500;50.620;3.400;2024-03-06T01:40:28;15.50;68.20
46754;DHT22;32500;50.620;3.400;2024-03-06T01:42:55;15.50;68.30
46754;DHT22;32500;50.620;3.400;2024-03-06T01:45:21;15.50;68.30
46754;DHT22;32500;50.620;3.400;2024-03-06T01:47:46;15.50;68.20
46754;DHT22;32500;50.620;3.400;2024-03-06T01:50:12;15.50;68.30
46754;DHT22;32500;50.620;3.400;2024-03-06T01:52:40;15.50;68.30
46754;DHT22;32500;50.620;3.400;2024-03-06T01:55:07;15.40;68.40
46754;DHT22;32500;50.620;3.400;2024-03-06T01:57:34;15.40;68.40
46754;DHT22;32500;50.620;3.400;2024-03-06T02:00:02;15.40;68.50
46754;DHT22;32500;50.620;3.400;2024-03-06T02:02:29;15.40;68.40
46754;DHT22;32500;50.620;3.400;2024-03-06T02:04:55;15.30;68.60
46754;DHT22;32500;50.620;3.400;2024-03-06T02:07:24;15.40;68.50
46754;DHT22;32500;50.620;3.400;2024-03-06T02:09:49;15.40;68.50
46754;DHT22;32500;50.620;3.400;2024-03-06T02:12:15;15.40;68.50
46754;DHT22;32500;50.620;3.400;2024-03-06T02:14:41;15.30;68.30
46754;DHT22;32500;50.620;3.400;2024-03-06T02:17:07;15.30;68.50
46754;DHT22;32500;50.620;3.400;2024-03-06T02:19:39;15.30;68.50
46754;DHT22;32500;50.620;3.400;2024-03-06T02:22:06;15.30;68.50
46754;DHT22;32500;50.620;3.400;2024-03-06T02:24:32;15.30;68.50
46754;DHT22;32500;50.620;3.400;2024-03-06T02:26:58;15.30;68.50
46754;DHT22;32500;50.620;3.400;2024-03-06T02:29:24;15.30;68.60
46754;DHT22;32500;50.620;3.400;2024-03-06T02:31:49;15.20;68.60
46754;DHT22;32500;50.620;3.400;2024-03-06T02:34:15;15.20;68.60
46754;DHT22;32500;50.620;3.400;2024-03-06T02:36:41;15.20;68.60
46754;DHT22;32500;50.620;3.400;2024-03-06T02:39:07;15.20;68.60
46754;DHT22;32500;50.620;3.400;2024-03-06T02:41:37;15.10;68.70
46754;DHT22;32500;50.620;3.400;2024-03-06T02:44:03;15.20;68.80
46754;DHT22;32500;50.620;3.400;2024-03-06T02:46:29;15.10;68.90
46754;DHT22;32500;50.620;3.400;2024-03-06T02:48:55;15.10;68.80
46754;DHT22;32500;50.620;3.400;2024-03-06T02:51:21;15.10;69.00
46754;DHT22;32500;50.620;3.400;2024-03-06T02:53:47;15.10;69.00
46754;DHT22;32500;50.620;3.400;2024-03-06T02:56:20;15.10;69.00
46754;DHT22;32500;50.620;3.400;2024-03-06T02:58:46;15.10;69.00
46754;DHT22;32500;50.620;3.400;2024-03-06T03:01:13;15.10;69.00
46754;DHT22;32500;50.620;3.400;2024-03-06T03:03:42;15.10;68.80
46754;DHT22;32500;50.620;3.400;2024-03-06T03:06:09;15.10;68.90
46754;DHT22;32500;50.620;3.400;2024-03-06T03:08:37;15.10;68.90
46754;DHT22;32500;50.620;3.400;2024-03-06T03:11:02;15.10;69.00
46754;DHT22;32500;50.620;3.400;2024-03-06T03:13:28;15.00;68.90
46754;DHT22;32500;50.620;3.400;2024-03-06T03:15:54;15.00;69.10
46754;DHT22;32500;50.620;3.400;2024-03-06T03:18:19;15.00;69.20
46754;DHT22;32500;50.620;3.400;2024-03-06T03:20:45;15.00;69.10
46754;DHT22;32500;50.620;3.400;2024-03-06T03:23:11;15.00;69.30
46754;DHT22;32500;50.620;3.400;2024-03-06T03:25:39;15.00;69.20
46754;DHT22;32500;50.620;3.400;2024-03-06T03:28:05;15.00;69.20
46754;DHT22;32500;50.620;3.400;2024-03-06T03:30:31;14.90;69.20
46754;DHT22;32500;50.620;3.400;2024-03-06T03:32:57;14.90;69.20
46754;DHT22;32500;50.620;3.400;2024-03-06T03:35:23;14.90;69.20
46754;DHT22;32500;50.620;3.400;2024-03-06T03:37:54;14.90;69.30
46754;DHT22;32500;50.620;3.400;2024-03-06T03:40:21;14.90;69.30
46754;DHT22;32500;50.620;3.400;2024-03-06T03:42:47;14.90;69.40
46754;DHT22;32500;50.620;3.400;2024-03-06T03:45:13;14.90;69.40
46754;DHT22;32500;50.620;3.400;2024-03-06T03:47:39;14.90;69.40
46754;DHT22;32500;50.620;3.400;2024-03-06T03:50:05;14.90;69.30
46754;DHT22;32500;50.620;3.400;2024-03-06T03:52:31;14.80;69.40
46754;DHT22;32500;50.620;3.400;2024-03-06T03:54:56;14.80;69.30
46754;DHT22;32500;50.620;3.400;2024-03-06T03:57:22;14.90;69.50
46754;DHT22;32500;50.620;3.400;2024-03-06T03:59:48;14.90;69.40
46754;DHT22;32500;50.620;3.400;2024-03-06T04:02:13;14.90;69.20
46754;DHT22;32500;50.620;3.400;2024-03-06T04:04:39;14.80;69.20
46754;DHT22;32500;50.620;3.400;2024-03-06T04:07:05;14.80;69.30
46754;DHT22;32500;50.620;3.400;2024-03-06T04:09:32;14.80;69.40
46754;DHT22;32500;50.620;3.400;2024-03-06T04:12:02;14.80;69.40
46754;DHT22;32500;50.620;3.400;2024-03-06T04:14:27;14.80;69.40
46754;DHT22;32500;50.620;3.400;2024-03-06T04:16:53;14.80;69.50
46754;DHT22;32500;50.620;3.400;2024-03-06T04:19:19;14.80;69.60
46754;DHT22;32500;50.620;3.400;2024-03-06T04:21:44;14.80;69.50
46754;DHT22;32500;50.620;3.400;2024-03-06T04:24:10;14.70;69.50
46754;DHT22;32500;50.620;3.400;2024-03-06T04:26:36;14.80;69.60
46754;DHT22;32500;50.620;3.400;2024-03-06T04:29:02;14.70;69.60
46754;DHT22;32500;50.620;3.400;2024-03-06T04:31:28;14.70;69.70
46754;DHT22;32500;50.620;3.400;2024-03-06T04:33:54;14.70;69.60
46754;DHT22;32500;50.620;3.400;2024-03-06T04:36:20;14.70;69.70
46754;DHT22;32500;50.620;3.400;2024-03-06T04:38:45;14.70;69.80
46754;DHT22;32500;50.620;3.400;2024-03-06T04:41:11;14.70;70.00
46754;DHT22;32500;50.620;3.400;2024-03-06T04:43:37;14.70;69.90
46754;DHT22;32500;50.620;3.400;2024-03-06T04:46:04;14.70;70.00
46754;DHT22;32500;50.620;3.400;2024-03-06T04:48:29;14.70;70.10
46754;DHT22;32500;50.620;3.400;2024-03-06T04:50:55;14.70;70.00
46754;DHT22;32500;50.620;3.400;2024-03-06T04:53:21;14.70;69.90
46754;DHT22;32500;50.620;3.400;2024-03-06T04:55:47;14.70;70.00
46754;DHT22;32500;50.620;3.400;2024-03-06T04:58:13;14.70;70.00
46754;DHT22;32500;50.620;3.400;2024-03-06T05:00:38;14.70;70.90
46754;DHT22;32500;50.620;3.400;2024-03-06T05:03:04;14.60;70.10
46754;DHT22;32500;50.620;3.400;2024-03-06T05:05:30;14.60;70.10
46754;DHT22;32500;50.620;3.400;2024-03-06T05:07:57;14.60;70.30
46754;DHT22;32500;50.620;3.400;2024-03-06T05:10:23;14.60;70.30
46754;DHT22;32500;50.620;3.400;2024-03-06T05:12:49;14.60;70.30
46754;DHT22;32500;50.620;3.400;2024-03-06T05:15:16;14.60;70.30
46754;DHT22;32500;50.620;3.400;2024-03-06T05:17:41;14.60;70.10
46754;DHT22;32500;50.620;3.400;2024-03-06T05:20:07;14.60;70.20
46754;DHT22;32500;50.620;3.400;2024-03-06T05:22:33;14.60;70.20
46754;DHT22;32500;50.620;3.400;2024-03-06T05:24:59;14.60;70.30
46754;DHT22;32500;50.620;3.400;2024-03-06T05:27:25;14.50;70.30
46754;DHT22;32500;50.620;3.400;2024-03-06T05:29:51;14.60;71.20
46754;DHT22;32500;50.620;3.400;2024-03-06T05:32:17;14.60;70.40
46754;DHT22;32500;50.620;3.400;2024-03-06T05:34:43;14.60;70.20
46754;DHT22;32500;50.620;3.400;2024-03-06T05:37:10;14.60;70.40
46754;DHT22;32500;50.620;3.400;2024-03-06T05:39:35;14.50;70.40
46754;DHT22;32500;50.620;3.400;2024-03-06T05:42:06;14.50;70.30
46754;DHT22;32500;50.620;3.400;2024-03-06T05:44:32;14.50;70.60
46754;DHT22;32500;50.620;3.400;2024-03-06T05:46:59;14.50;70.50
46754;DHT22;32500;50.620;3.400;2024-03-06T05:49:26;14.50;70.60
46754;DHT22;32500;50.620;3.400;2024-03-06T05:51:52;14.50;70.60
46754;DHT22;32500;50.620;3.400;2024-03-06T05:54:19;14.50;70.50
46754;DHT22;32500;50.620;3.400;2024-03-06T05:56:45;14.50;70.50
46754;DHT22;32500;50.620;3.400;2024-03-06T05:59:10;14.40;70.60
46754;DHT22;32500;50.620;3.400;2024-03-06T06:01:36;14.40;70.60
46754;DHT22;32500;50.620;3.400;2024-03-06T06:04:02;14.40;70.60
46754;DHT22;32500;50.620;3.400;2024-03-06T06:06:28;14.40;70.60
46754;DHT22;32500;50.620;3.400;2024-03-06T06:08:54;14.40;70.60
46754;DHT22;32500;50.620;3.400;2024-03-06T06:11:19;14.40;70.60
46754;DHT22;32500;50.620;3.400;2024-03-06T06:13:45;14.40;70.60
46754;DHT22;32500;50.620;3.400;2024-03-06T06:16:11;14.40;70.60
46754;DHT22;32500;50.620;3.400;2024-03-06T06:18:37;14.40;70.60
46754;DHT22;32500;50.620;3.400;2024-03-06T06:21:03;14.40;70.50
46754;DHT22;32500;50.620;3.400;2024-03-06T06:23:32;14.40;70.50
46754;DHT22;32500;50.620;3.400;2024-03-06T06:25:58;14.40;70.40
46754;DHT22;32500;50.620;3.400;2024-03-06T06:28:24;14.40;70.50
46754;DHT22;32500;50.620;3.400;2024-03-06T06:30:50;14.40;70.60
46754;DHT22;32500;50.620;3.400;2024-03-06T06:33:18;14.40;70.70
46754;DHT22;32500;50.620;3.400;2024-03-06T06:35:44;14.30;70.50
46754;DHT22;32500;50.620;3.400;2024-03-06T06:38:13;14.40;70.60
46754;DHT22;32500;50.620;3.400;2024-03-06T06:40:39;14.30;70.60
46754;DHT22;32500;50.620;3.400;2024-03-06T06:43:06;14.30;70.60
46754;DHT22;32500;50.620;3.400;2024-03-06T06:45:32;14.30;70.60
46754;DHT22;32500;50.620;3.400;2024-03-06T06:47:58;14.30;70.60
46754;DHT22;32500;50.620;3.400;2024-03-06T06:50:23;14.30;70.60
46754;DHT22;32500;50.620;3.400;2024-03-06T06:52:51;14.40;70.50
46754;DHT22;32500;50.620;3.400;2024-03-06T06:55:17;14.40;70.30
46754;DHT22;32500;50.620;3.400;2024-03-06T06:57:43;14.40;70.40
46754;DHT22;32500;50.620;3.400;2024-03-06T07:00:10;14.40;70.40
46754;DHT22;32500;50.620;3.400;2024-03-06T07:02:39;14.30;70.40
46754;DHT22;32500;50.620;3.400;2024-03-06T07:05:06;14.40;70.70
46754;DHT22;32500;50.620;3.400;2024-03-06T07:07:33;14.40;70.90
46754;DHT22;32500;50.620;3.400;2024-03-06T07:09:59;14.40;70.90
46754;DHT22;32500;50.620;3.400;2024-03-06T07:12:25;14.40;71.10
46754;DHT22;32500;50.620;3.400;2024-03-06T07:14:50;14.40;71.20
46754;DHT22;32500;50.620;3.400;2024-03-06T07:17:16;14.40;71.30
46754;DHT22;32500;50.620;3.400;2024-03-06T07:19:42;14.40;71.00
46754;DHT22;32500;50.620;3.400;2024-03-06T07:22:07;14.00;68.30
46754;DHT22;32500;50.620;3.400;2024-03-06T07:24:34;13.80;69.10
46754;DHT22;32500;50.620;3.400;2024-03-06T07:26:59;13.90;66.90
46754;DHT22;32500;50.620;3.400;2024-03-06T07:29:27;13.60;68.40
46754;DHT22;32500;50.620;3.400;2024-03-06T07:31:52;13.50;67.70
46754;DHT22;32500;50.620;3.400;2024-03-06T07:34:19;13.30;69.30
46754;DHT22;32500;50.620;3.400;2024-03-06T07:36:46;13.20;69.50
46754;DHT22;32500;50.620;3.400;2024-03-06T07:39:15;13.00;70.80
46754;DHT22;32500;50.620;3.400;2024-03-06T07:41:41;12.90;69.80
46754;DHT22;32500;50.620;3.400;2024-03-06T07:44:07;12.80;70.40
46754;DHT22;32500;50.620;3.400;2024-03-06T07:46:32;12.80;71.00
46754;DHT22;32500;50.620;3.400;2024-03-06T07:48:58;12.90;72.10
46754;DHT22;32500;50.620;3.400;2024-03-06T07:51:24;12.90;71.10
46754;DHT22;32500;50.620;3.400;2024-03-06T07:53:49;12.90;69.90
46754;DHT22;32500;50.620;3.400;2024-03-06T07:56:16;13.00;70.50
46754;DHT22;32500;50.620;3.400;2024-03-06T07:58:42;13.00;71.10
46754;DHT22;32500;50.620;3.400;2024-03-06T08:01:08;13.00;70.50
46754;DHT22;32500;50.620;3.400;2024-03-06T08:03:33;12.80;70.50
46754;DHT22;32500;50.620;3.400;2024-03-06T08:05:59;12.70;71.60
46754;DHT22;32500;50.620;3.400;2024-03-06T08:08:25;12.70;71.60
46754;DHT22;32500;50.620;3.400;2024-03-06T08:10:51;12.80;70.90
46754;DHT22;32500;50.620;3.400;2024-03-06T08:13:17;12.80;71.20
46754;DHT22;32500;50.620;3.400;2024-03-06T08:15:46;12.80;72.60
46754;DHT22;32500;50.620;3.400;2024-03-06T08:18:12;13.10;73.10
46754;DHT22;32500;50.620;3.400;2024-03-06T08:20:42;13.40;71.70
46754;DHT22;32500;50.620;3.400;2024-03-06T08:23:08;13.50;70.30
46754;DHT22;32500;50.620;3.400;2024-03-06T08:25:36;13.40;69.30
46754;DHT22;32500;50.620;3.400;2024-03-06T08:28:03;13.50;70.10
46754;DHT22;32500;50.620;3.400;2024-03-06T08:30:31;13.30;70.00
46754;DHT22;32500;50.620;3.400;2024-03-06T08:32:56;13.40;70.00
46754;DHT22;32500;50.620;3.400;2024-03-06T08:35:22;13.30;69.30
46754;DHT22;32500;50.620;3.400;2024-03-06T08:37:50;13.10;70.80
46754;DHT22;32500;50.620;3.400;2024-03-06T08:40:17;13.30;71.10
46754;DHT22;32500;50.620;3.400;2024-03-06T08:42:49;13.20;70.80
46754;DHT22;32500;50.620;3.400;2024-03-06T08:45:16;13.40;71.30
46754;DHT22;32500;50.620;3.400;2024-03-06T08:47:43;13.40;69.50
46754;DHT22;32500;50.620;3.400;2024-03-06T08:50:10;13.30;69.90
46754;DHT22;32500;50.620;3.400;2024-03-06T08:52:39;13.20;70.10
46754;DHT22;32500;50.620;3.400;2024-03-06T08:55:05;13.00;71.10
46754;DHT22;32500;50.620;3.400;2024-03-06T08:57:33;13.10;71.50
46754;DHT22;32500;50.620;3.400;2024-03-06T09:02:27;13.30;71.40
46754;DHT22;32500;50.620;3.400;2024-03-06T09:04:53;13.50;71.50
46754;DHT22;32500;50.620;3.400;2024-03-06T09:07:19;13.50;69.50
46754;DHT22;32500;50.620;3.400;2024-03-06T09:09:46;13.30;69.70
46754;DHT22;32500;50.620;3.400;2024-03-06T09:12:11;13.20;70.30
46754;DHT22;32500;50.620;3.400;2024-03-06T09:14:38;13.20;71.20
46754;DHT22;32500;50.620;3.400;2024-03-06T09:17:04;13.00;71.00
46754;DHT22;32500;50.620;3.400;2024-03-06T09:19:32;13.00;71.50
46754;DHT22;32500;50.620;3.400;2024-03-06T09:21:58;12.90;71.40
46754;DHT22;32500;50.620;3.400;2024-03-06T09:24:24;12.90;72.10
46754;DHT22;32500;50.620;3.400;2024-03-06T09:26:53;12.90;72.50
46754;DHT22;32500;50.620;3.400;2024-03-06T09:29:19;13.00;72.00
46754;DHT22;32500;50.620;3.400;2024-03-06T09:31:46;12.90;71.10
46754;DHT22;32500;50.620;3.400;2024-03-06T09:34:13;12.90;72.10
46754;DHT22;32500;50.620;3.400;2024-03-06T09:36:46;12.90;72.40
46754;DHT22;32500;50.620;3.400;2024-03-06T09:39:15;12.90;72.40
46754;DHT22;32500;50.620;3.400;2024-03-06T09:41:49;12.90;72.50
46754;DHT22;32500;50.620;3.400;2024-03-06T09:44:20;13.00;72.50
46754;DHT22;32500;50.620;3.400;2024-03-06T09:46:48;13.10;73.30
46754;DHT22;32500;50.620;3.400;2024-03-06T09:49:18;13.70;73.20
46754;DHT22;32500;50.620;3.400;2024-03-06T09:51:45;13.60;70.90
46754;DHT22;32500;50.620;3.400;2024-03-06T09:54:12;13.70;72.00
46754;DHT22;32500;50.620;3.400;2024-03-06T09:56:45;13.60;70.90
46754;DHT22;32500;50.620;3.400;2024-03-06T09:59:12;13.70;74.00
46754;DHT22;32500;50.620;3.400;2024-03-06T10:01:57;13.60;70.30
46754;DHT22;32500;50.620;3.400;2024-03-06T10:04:24;13.40;71.80
46754;DHT22;32500;50.620;3.400;2024-03-06T10:07:00;13.70;74.10
46754;DHT22;32500;50.620;3.400;2024-03-06T10:09:27;13.90;72.50
46754;DHT22;32500;50.620;3.400;2024-03-06T10:11:54;14.20;71.20
46754;DHT22;32500;50.620;3.400;2024-03-06T10:14:22;14.20;70.20
46754;DHT22;32500;50.620;3.400;2024-03-06T10:17:00;14.20;70.10
46754;DHT22;32500;50.620;3.400;2024-03-06T10:19:28;14.10;68.90
46754;DHT22;32500;50.620;3.400;2024-03-06T10:21:55;14.10;70.20
46754;DHT22;32500;50.620;3.400;2024-03-06T10:24:23;14.10;68.80
46754;DHT22;32500;50.620;3.400;2024-03-06T10:26:55;14.40;70.90
46754;DHT22;32500;50.620;3.400;2024-03-06T10:29:24;14.40;69.80
46754;DHT22;32500;50.620;3.400;2024-03-06T10:31:58;14.60;67.40
46754;DHT22;32500;50.620;3.400;2024-03-06T10:34:25;14.50;66.70
46754;DHT22;32500;50.620;3.400;2024-03-06T10:36:57;14.50;67.60
46754;DHT22;32500;50.620;3.400;2024-03-06T10:39:25;14.50;68.70
46754;DHT22;32500;50.620;3.400;2024-03-06T10:41:56;14.70;66.60
46754;DHT22;32500;50.620;3.400;2024-03-06T10:44:25;14.70;65.60
46754;DHT22;32500;50.620;3.400;2024-03-06T10:47:04;14.80;65.10
46754;DHT22;32500;50.620;3.400;2024-03-06T10:49:31;14.80;66.40
46754;DHT22;32500;50.620;3.400;2024-03-06T10:52:00;14.90;64.80
46754;DHT22;32500;50.620;3.400;2024-03-06T10:54:30;14.80;63.50
46754;DHT22;32500;50.620;3.400;2024-03-06T10:56:58;14.90;65.30
46754;DHT22;32500;50.620;3.400;2024-03-06T10:59:28;15.00;65.40
46754;DHT22;32500;50.620;3.400;2024-03-06T11:01:55;15.00;65.90
46754;DHT22;32500;50.620;3.400;2024-03-06T11:04:27;14.90;64.20
46754;DHT22;32500;50.620;3.400;2024-03-06T11:07:02;14.80;64.00
46754;DHT22;32500;50.620;3.400;2024-03-06T11:09:36;15.00;64.90
46754;DHT22;32500;50.620;3.400;2024-03-06T11:12:03;15.10;63.90
46754;DHT22;32500;50.620;3.400;2024-03-06T11:14:32;15.20;64.50
46754;DHT22;32500;50.620;3.400;2024-03-06T11:19:30;15.10;61.10
46754;DHT22;32500;50.620;3.400;2024-03-06T11:21:57;15.20;63.10
46754;DHT22;32500;50.620;3.400;2024-03-06T11:24:24;15.20;64.90
46754;DHT22;32500;50.620;3.400;2024-03-06T11:29:24;15.50;65.40
46754;DHT22;32500;50.620;3.400;2024-03-06T11:32:07;15.40;63.70
46754;DHT22;32500;50.620;3.400;2024-03-06T11:34:34;15.40;65.30
46754;DHT22;32500;50.620;3.400;2024-03-06T11:37:04;15.50;63.80
46754;DHT22;32500;50.620;3.400;2024-03-06T11:39:37;15.40;63.70
46754;DHT22;32500;50.620;3.400;2024-03-06T11:42:04;15.50;65.10
46754;DHT22;32500;50.620;3.400;2024-03-06T11:44:33;15.30;62.10
46754;DHT22;32500;50.620;3.400;2024-03-06T11:47:05;15.40;66.50
46754;DHT22;32500;50.620;3.400;2024-03-06T11:49:33;15.50;65.70
46754;DHT22;32500;50.620;3.400;2024-03-06T11:52:04;15.30;60.10
46754;DHT22;32500;50.620;3.400;2024-03-06T11:54:31;15.20;63.80
46754;DHT22;32500;50.620;3.400;2024-03-06T11:57:00;15.20;64.20
46754;DHT22;32500;50.620;3.400;2024-03-06T11:59:35;15.20;64.60
46754;DHT22;32500;50.620;3.400;2024-03-06T12:02:04;15.40;64.20
46754;DHT22;32500;50.620;3.400;2024-03-06T12:04:31;15.40;63.30
46754;DHT22;32500;50.620;3.400;2024-03-06T12:07:03;15.40;64.10
46754;DHT22;32500;50.620;3.400;2024-03-06T12:09:32;15.40;64.10
46754;DHT22;32500;50.620;3.400;2024-03-06T12:11:58;15.60;64.30
46754;DHT22;32500;50.620;3.400;2024-03-06T12:14:24;15.60;63.20
46754;DHT22;32500;50.620;3.400;2024-03-06T12:17:00;15.80;65.20
46754;DHT22;32500;50.620;3.400;2024-03-06T12:19:32;15.80;63.90
46754;DHT22;32500;50.620;3.400;2024-03-06T12:22:02;16.00;65.10
46754;DHT22;32500;50.620;3.400;2024-03-06T12:24:30;16.00;61.00
46754;DHT22;32500;50.620;3.400;2024-03-06T12:27:06;15.90;62.30
46754;DHT22;32500;50.620;3.400;2024-03-06T12:29:34;15.90;62.00
46754;DHT22;32500;50.620;3.400;2024-03-06T12:32:00;15.90;60.70
46754;DHT22;32500;50.620;3.400;2024-03-06T12:34:27;15.80;59.70
46754;DHT22;32500;50.620;3.400;2024-03-06T12:36:53;15.70;61.10
46754;DHT22;32500;50.620;3.400;2024-03-06T12:39:18;15.70;61.20
46754;DHT22;32500;50.620;3.400;2024-03-06T12:41:49;15.70;60.30
46754;DHT22;32500;50.620;3.400;2024-03-06T12:44:14;15.60;60.90
46754;DHT22;32500;50.620;3.400;2024-03-06T12:46:40;15.60;62.30
46754;DHT22;32500;50.620;3.400;2024-03-06T12:49:06;15.90;65.20
46754;DHT22;32500;50.620;3.400;2024-03-06T12:51:32;16.20;65.40
46754;DHT22;32500;50.620;3.400;2024-03-06T12:53:58;16.50;65.20
46754;DHT22;32500;50.620;3.400;2024-03-06T12:56:24;16.70;65.10
46754;DHT22;32500;50.620;3.400;2024-03-06T12:58:51;16.80;65.30
46754;DHT22;32500;50.620;3.400;2024-03-06T13:01:17;16.90;65.00
46754;DHT22;32500;50.620;3.400;2024-03-06T13:03:43;17.00;65.20
46754;DHT22;32500;50.620;3.400;2024-03-06T13:06:08;17.00;65.80
46754;DHT22;32500;50.620;3.400;2024-03-06T13:08:35;17.00;64.90
46754;DHT22;32500;50.620;3.400;2024-03-06T13:11:01;17.10;65.20
46754;DHT22;32500;50.620;3.400;2024-03-06T13:13:27;17.10;65.30
46754;DHT22;32500;50.620;3.400;2024-03-06T13:15:58;17.10;65.30
46754;DHT22;32500;50.620;3.400;2024-03-06T13:18:24;17.20;65.30
46754;DHT22;32500;50.620;3.400;2024-03-06T13:20:51;17.10;65.10
46754;DHT22;32500;50.620;3.400;2024-03-06T13:25:44;17.10;65.10
46754;DHT22;32500;50.620;3.400;2024-03-06T13:28:12;17.10;65.10
46754;DHT22;32500;50.620;3.400;2024-03-06T13:30:38;17.10;65.20
46754;DHT22;32500;50.620;3.400;2024-03-06T13:33:05;17.10;64.80
46754;DHT22;32500;50.620;3.400;2024-03-06T13:35:31;17.00;64.70
46754;DHT22;32500;50.620;3.400;2024-03-06T13:37:56;17.00;64.80
46754;DHT22;32500;50.620;3.400;2024-03-06T13:40:22;17.00;64.80
46754;DHT22;32500;50.620;3.400;2024-03-06T13:42:48;16.90;65.10
46754;DHT22;32500;50.620;3.400;2024-03-06T13:45:14;17.00;65.10
46754;DHT22;32500;50.620;3.400;2024-03-06T13:47:43;17.00;64.80
46754;DHT22;32500;50.620;3.400;2024-03-06T13:50:14;17.00;64.70
46754;DHT22;32500;50.620;3.400;2024-03-06T13:52:41;17.00;65.20
46754;DHT22;32500;50.620;3.400;2024-03-06T13:55:07;17.10;65.30
46754;DHT22;32500;50.620;3.400;2024-03-06T13:57:37;17.10;66.10
46754;DHT22;32500;50.620;3.400;2024-03-06T14:00:05;17.10;65.40
46754;DHT22;32500;50.620;3.400;2024-03-06T14:02:31;17.10;65.50
46754;DHT22;32500;50.620;3.400;2024-03-06T14:04:57;17.10;65.30
46754;DHT22;32500;50.620;3.400;2024-03-06T14:07:24;17.20;65.40
46754;DHT22;32500;50.620;3.400;2024-03-06T14:09:52;17.20;65.50
46754;DHT22;32500;50.620;3.400;2024-03-06T14:12:18;17.30;65.50
46754;DHT22;32500;50.620;3.400;2024-03-06T14:14:44;17.30;65.70
46754;DHT22;32500;50.620;3.400;2024-03-06T14:17:12;17.40;66.00
46754;DHT22;32500;50.620;3.400;2024-03-06T14:19:38;17.40;65.80
46754;DHT22;32500;50.620;3.400;2024-03-06T14:22:06;17.40;65.80
46754;DHT22;32500;50.620;3.400;2024-03-06T14:24:32;17.40;65.80
46754;DHT22;32500;50.620;3.400;2024-03-06T14:26:57;17.50;65.80
46754;DHT22;32500;50.620;3.400;2024-03-06T14:29:23;17.50;65.70
46754;DHT22;32500;50.620;3.400;2024-03-06T14:31:48;17.50;65.60
46754;DHT22;32500;50.620;3.400;2024-03-06T14:34:14;17.50;66.50
46754;DHT22;32500;50.620;3.400;2024-03-06T14:36:40;17.50;65.60
46754;DHT22;32500;50.620;3.400;2024-03-06T14:39:07;17.50;65.60
46754;DHT22;32500;50.620;3.400;2024-03-06T14:41:35;17.50;65.70
46754;DHT22;32500;50.620;3.400;2024-03-06T14:44:01;17.50;65.70
46754;DHT22;32500;50.620;3.400;2024-03-06T14:46:27;17.50;65.60
46754;DHT22;32500;50.620;3.400;2024-03-06T14:48:54;17.60;65.60
46754;DHT22;32500;50.620;3.400;2024-03-06T14:51:20;17.50;65.60
46754;DHT22;32500;50.620;3.400;2024-03-06T14:53:45;17.50;65.40
46754;DHT22;32500;50.620;3.400;2024-03-06T14:56:11;17.50;65.30
46754;DHT22;32500;50.620;3.400;2024-03-06T14:58:37;17.50;65.30
46754;DHT22;32500;50.620;3.400;2024-03-06T15:01:04;17.50;65.30
46754;DHT22;32500;50.620;3.400;2024-03-06T15:03:29;17.50;65.50
46754;DHT22;32500;50.620;3.400;2024-03-06T15:05:55;17.50;65.00
46754;DHT22;32500;50.620;3.400;2024-03-06T15:08:21;17.50;65.10
46754;DHT22;32500;50.620;3.400;2024-03-06T15:10:46;17.50;65.30
46754;DHT22;32500;50.620;3.400;2024-03-06T15:13:12;17.50;65.40
46754;DHT22;32500;50.620;3.400;2024-03-06T15:15:41;17.50;65.20
46754;DHT22;32500;50.620;3.400;2024-03-06T15:18:07;17.50;65.20
46754;DHT22;32500;50.620;3.400;2024-03-06T15:20:32;17.50;65.40
46754;DHT22;32500;50.620;3.400;2024-03-06T15:22:59;17.50;65.30
46754;DHT22;32500;50.620;3.400;2024-03-06T15:25:24;17.50;64.80
46754;DHT22;32500;50.620;3.400;2024-03-06T15:27:50;17.50;65.00
46754;DHT22;32500;50.620;3.400;2024-03-06T15:30:16;17.60;64.60
46754;DHT22;32500;50.620;3.400;2024-03-06T15:32:42;17.60;64.80
46754;DHT22;32500;50.620;3.400;2024-03-06T15:35:08;17.60;64.90
46754;DHT22;32500;50.620;3.400;2024-03-06T15:37:34;17.60;64.80